Morteros, Argentina
Current Conditions -  °F | °C
As of 11:00 PM on Monday 22 Dec 2014 (Local Time) from SACO Reporting Station
Clear Clear  
Wind Chill: 54°   Ceiling: Unl
Heat Index: 54°   Visibility: 6mi
Dew Point: 41°   Wind: 0mph
Humidity: 62%   Direction: NA
Pressure: 30.33"   Gusts: NA
Location:  30.7°S, 62°W
Report Text: SACO 230200Z 00000KT CAVOK 12/05 Q1027
Loading
Personal Weather Stations






























Interactive Weather Map New forecast layout! Learn more

10-Day Weather Forecast

Advertisements
Track Severe Weather on mobile